createdAt,value
2018-02-08T00:00:53.476Z,98147.17
2018-02-08T00:01:56.906Z,98149.48
2018-02-08T00:02:59.852Z,98146.02
2018-02-08T00:04:02.801Z,98150.90
2018-02-08T00:05:05.720Z,98154.89
2018-02-08T00:06:08.688Z,98150.69
2018-02-08T00:07:11.628Z,98151.30
2018-02-08T00:08:14.995Z,98154.34
2018-02-08T00:09:17.964Z,98154.56
2018-02-08T00:10:20.938Z,98148.23
2018-02-08T00:11:24.828Z,98147.59
2018-02-08T00:12:27.750Z,98157.09
2018-02-08T00:13:30.691Z,98150.45
2018-02-08T00:14:34.051Z,98151.56
2018-02-08T00:15:36.980Z,98145.94
2018-02-08T00:16:39.883Z,98146.34
2018-02-08T00:17:42.835Z,98151.23
2018-02-08T00:18:45.784Z,98144.53
2018-02-08T00:19:48.727Z,98146.86
2018-02-08T00:20:52.158Z,98141.77
2018-02-08T00:21:55.051Z,98145.16
2018-02-08T00:22:58.034Z,98139.05
2018-02-08T00:24:00.973Z,98143.77
2018-02-08T00:25:03.886Z,98138.94
2018-02-08T00:26:06.743Z,98137.91
2018-02-08T00:27:09.957Z,98138.86
2018-02-08T00:28:12.867Z,98144.94
2018-02-08T00:29:15.871Z,98142.88
2018-02-08T00:30:18.792Z,98141.14
2018-02-08T00:31:21.892Z,98142.38
2018-02-08T00:32:24.790Z,98130.51
2018-02-08T00:33:28.091Z,98140.22
2018-02-08T00:34:30.961Z,98127.98
2018-02-08T00:35:33.833Z,98139.05
2018-02-08T00:36:36.728Z,98137.55
2018-02-08T00:37:39.582Z,98137.99
2018-02-08T00:38:42.479Z,98137.83
2018-02-08T00:39:45.836Z,98129.91
2018-02-08T00:40:48.705Z,98132.50
2018-02-08T00:41:51.569Z,98131.55
2018-02-08T00:42:54.477Z,98136.05
2018-02-08T00:43:57.342Z,98137.62
2018-02-08T00:45:00.236Z,98137.23
2018-02-08T00:46:03.594Z,98141.41
2018-02-08T00:47:06.523Z,98140.30
2018-02-08T00:48:09.492Z,98141.70
2018-02-08T00:49:12.451Z,98142.19
2018-02-08T00:50:15.417Z,98145.66
2018-02-08T00:51:18.349Z,98139.81
2018-02-08T00:52:21.637Z,98142.71
2018-02-08T00:53:24.577Z,98141.31
2018-02-08T00:54:27.521Z,98137.88
2018-02-08T00:55:30.436Z,98139.55
2018-02-08T00:56:33.414Z,98139.86
2018-02-08T00:57:36.344Z,98140.94
2018-02-08T00:58:39.674Z,98139.64
2018-02-08T00:59:42.631Z,98146.17
2018-02-08T01:00:45.595Z,98146.90
2018-02-08T01:01:48.536Z,98140.87
2018-02-08T01:02:51.464Z,98149.91
2018-02-08T01:03:54.435Z,98143.98
2018-02-08T01:04:57.726Z,98153.92
2018-02-08T01:06:00.637Z,98156.19
2018-02-08T01:07:03.588Z,98151.98
2018-02-08T01:08:06.599Z,98152.92
2018-02-08T01:09:09.553Z,98152.56
2018-02-08T01:10:12.523Z,98155.08
2018-02-08T01:11:15.755Z,98157.55
2018-02-08T01:12:18.762Z,98153.91
2018-02-08T01:13:21.756Z,98159.65
2018-02-08T01:14:24.707Z,98159.16
2018-02-08T01:15:27.687Z,98160.16
2018-02-08T01:16:30.531Z,98163.33
2018-02-08T01:17:33.351Z,98165.67
2018-02-08T01:18:36.177Z,98160.17
2018-02-08T01:19:39.084Z,98162.83
2018-02-08T01:20:41.961Z,98164.95
2018-02-08T01:21:44.807Z,98162.77
2018-02-08T01:22:47.702Z,98164.23
2018-02-08T01:23:50.969Z,98170.19
2018-02-08T01:24:53.785Z,98172.64
2018-02-08T01:25:56.599Z,98171.03
2018-02-08T01:26:59.403Z,98172.25
2018-02-08T01:28:02.320Z,98177.84
2018-02-08T01:29:05.292Z,98176.71
2018-02-08T01:30:08.850Z,98172.75
2018-02-08T01:31:11.799Z,98175.78
2018-02-08T01:32:14.703Z,98173.88
2018-02-08T01:33:17.671Z,98174.10
2018-02-08T01:34:20.522Z,98176.95
2018-02-08T01:35:23.347Z,98179.50
2018-02-08T01:36:26.651Z,98177.22
2018-02-08T01:37:29.581Z,98174.72
2018-02-08T01:38:32.535Z,98178.05
2018-02-08T01:39:35.543Z,98170.38
2018-02-08T01:40:38.472Z,98174.21
2018-02-08T01:41:41.383Z,98173.03
2018-02-08T01:42:44.634Z,98176.99
2018-02-08T01:43:47.590Z,98174.20
2018-02-08T01:44:50.521Z,98174.50
2018-02-08T01:45:53.424Z,98176.09
2018-02-08T01:46:56.378Z,98171.13
2018-02-08T01:47:59.271Z,98177.35
2018-02-08T01:49:02.676Z,98174.55
2018-02-08T01:50:05.678Z,98169.84
2018-02-08T01:51:08.609Z,98165.33
2018-02-08T01:52:11.631Z,98163.97
2018-02-08T01:53:14.550Z,98162.01
2018-02-08T01:54:17.465Z,98159.38
2018-02-08T01:55:20.702Z,98161.55
2018-02-08T01:56:23.675Z,98162.11
2018-02-08T01:57:26.562Z,98159.89
2018-02-08T01:58:29.505Z,98160.83
2018-02-08T01:59:32.449Z,98155.28
2018-02-08T02:00:35.373Z,98152.03
2018-02-08T02:01:38.846Z,98151.68
2018-02-08T02:02:41.945Z,98151.88
2018-02-08T02:03:44.856Z,98153.18
2018-02-08T02:04:47.813Z,98152.14
2018-02-08T02:05:50.754Z,98148.92
2018-02-08T02:06:53.702Z,98144.98
2018-02-08T02:07:56.964Z,98150.55
2018-02-08T02:08:59.901Z,98147.91
2018-02-08T02:10:02.842Z,98144.22
2018-02-08T02:11:05.828Z,98146.92
2018-02-08T02:12:08.739Z,98147.11
2018-02-08T02:13:11.644Z,98152.37
2018-02-08T02:14:14.900Z,98152.76
2018-02-08T02:15:17.838Z,98154.48
2018-02-08T02:16:20.752Z,98154.05
2018-02-08T02:17:23.669Z,98147.50
2018-02-08T02:18:26.606Z,98144.91
2018-02-08T02:19:29.527Z,98145.47
2018-02-08T02:20:32.813Z,98153.15
2018-02-08T02:21:35.772Z,98152.72
2018-02-08T02:22:38.715Z,98149.39
2018-02-08T02:23:41.671Z,98144.88
2018-02-08T02:24:44.597Z,98149.77
2018-02-08T02:25:47.557Z,98142.80
2018-02-08T02:26:50.866Z,98149.14
2018-02-08T02:27:53.822Z,98141.59
2018-02-08T02:28:57.573Z,98150.25
2018-02-08T02:30:00.976Z,98148.98
2018-02-08T02:31:04.440Z,98147.06
2018-02-08T02:32:08.205Z,98148.00
2018-02-08T02:33:11.569Z,98146.77
2018-02-08T02:34:14.588Z,98148.81
2018-02-08T02:35:17.529Z,98153.89
2018-02-08T02:36:20.451Z,98152.30
2018-02-08T02:37:23.380Z,98154.77
2018-02-08T02:38:26.396Z,98155.09
2018-02-08T02:39:29.782Z,98150.00
2018-02-08T02:40:32.723Z,98157.30
2018-02-08T02:41:35.604Z,98154.83
2018-02-08T02:42:38.545Z,98152.49
2018-02-08T02:43:41.547Z,98153.16
2018-02-08T02:44:44.483Z,98158.95
2018-02-08T02:45:47.896Z,98152.62
2018-02-08T02:46:50.817Z,98156.42
2018-02-08T02:47:53.771Z,98160.32
2018-02-08T02:48:56.722Z,98155.48
2018-02-08T02:49:59.775Z,98155.84
2018-02-08T02:51:02.726Z,98161.12
2018-02-08T02:52:05.681Z,98154.31
2018-02-08T02:53:08.633Z,98157.61
2018-02-08T02:54:11.672Z,98147.67
2018-02-08T02:55:14.660Z,98150.30
2018-02-08T02:56:17.694Z,98158.25
2018-02-08T02:57:20.633Z,98154.94
2018-02-08T02:58:24.009Z,98151.83
2018-02-08T02:59:26.940Z,98156.09
2018-02-08T03:00:29.915Z,98157.98
2018-02-08T03:01:32.872Z,98162.61
2018-02-08T03:02:35.868Z,98160.80
2018-02-08T03:03:38.919Z,98165.16
2018-02-08T03:04:42.286Z,98158.78
2018-02-08T03:05:45.256Z,98165.40
2018-02-08T03:06:48.224Z,98161.45
2018-02-08T03:07:51.161Z,98162.91
2018-02-08T03:08:54.114Z,98162.07
2018-02-08T03:09:57.138Z,98161.52
2018-02-08T03:11:00.586Z,98163.89
2018-02-08T03:12:03.541Z,98164.73
2018-02-08T03:13:06.513Z,98159.50
2018-02-08T03:14:09.451Z,98160.34
2018-02-08T03:15:12.450Z,98158.07
2018-02-08T03:16:15.390Z,98153.64
2018-02-08T03:17:18.824Z,98154.42
2018-02-08T03:18:21.783Z,98153.38
2018-02-08T03:19:24.789Z,98154.91
2018-02-08T03:20:27.711Z,98152.38
2018-02-08T03:21:30.759Z,98152.24
2018-02-08T03:22:33.719Z,98155.14
2018-02-08T03:23:37.130Z,98156.87
2018-02-08T03:24:40.106Z,98152.63
2018-02-08T03:25:43.058Z,98151.69
2018-02-08T03:26:46.027Z,98158.50
2018-02-08T03:27:48.967Z,98159.12
2018-02-08T03:28:52.097Z,98155.89
2018-02-08T03:29:55.548Z,98161.63
2018-02-08T03:30:58.675Z,98156.09
2018-02-08T03:32:01.726Z,98155.37
2018-02-08T03:33:04.680Z,98160.48
2018-02-08T03:34:07.616Z,98163.13
2018-02-08T03:35:10.559Z,98162.67
2018-02-08T03:36:13.992Z,98172.12
2018-02-08T03:37:16.910Z,98172.45
2018-02-08T03:38:19.864Z,98166.68
2018-02-08T03:39:22.807Z,98165.57
2018-02-08T03:40:25.777Z,98162.28
2018-02-08T03:41:28.695Z,98166.88
2018-02-08T03:42:32.080Z,98172.48
2018-02-08T03:43:35.017Z,98169.38
2018-02-08T03:44:37.900Z,98164.27
2018-02-08T03:45:40.765Z,98168.37
2018-02-08T03:46:43.682Z,98158.10
2018-02-08T03:47:46.642Z,98166.69
2018-02-08T03:48:49.896Z,98164.67
2018-02-08T03:49:52.866Z,98168.66
2018-02-08T03:50:55.815Z,98170.25
2018-02-08T03:51:58.752Z,98166.44
2018-02-08T03:53:01.695Z,98163.91
2018-02-08T03:54:04.698Z,98166.74
2018-02-08T03:55:07.930Z,98167.69
2018-02-08T03:56:10.869Z,98169.66
2018-02-08T03:57:13.823Z,98166.33
2018-02-08T03:58:16.785Z,98169.45
2018-02-08T03:59:19.704Z,98168.17
2018-02-08T04:00:22.666Z,98166.54
2018-02-08T04:01:25.996Z,98175.81
2018-02-08T04:02:28.946Z,98168.56
2018-02-08T04:03:31.875Z,98168.30
2018-02-08T04:04:34.827Z,98172.31
2018-02-08T04:05:37.946Z,98171.05
2018-02-08T04:06:40.864Z,98164.91
2018-02-08T04:07:44.272Z,98166.84
2018-02-08T04:08:47.212Z,98168.13
2018-02-08T04:09:50.159Z,98173.52
2018-02-08T04:10:53.083Z,98176.84
2018-02-08T04:11:56.028Z,98173.44
2018-02-08T04:12:58.999Z,98174.66
2018-02-08T04:14:02.381Z,98175.42
2018-02-08T04:15:05.379Z,98177.78
2018-02-08T04:16:08.322Z,98176.64
2018-02-08T04:17:11.329Z,98178.59
2018-02-08T04:18:14.271Z,98183.27
2018-02-08T04:19:17.898Z,98180.59
2018-02-08T04:20:21.232Z,98179.37
2018-02-08T04:21:24.164Z,98180.70
2018-02-08T04:22:27.083Z,98183.70
2018-02-08T04:23:30.059Z,98178.64
2018-02-08T04:24:33.017Z,98186.73
2018-02-08T04:25:35.966Z,98184.22
2018-02-08T04:26:39.254Z,98186.08
2018-02-08T04:27:42.226Z,98184.58
2018-02-08T04:28:45.176Z,98180.37
2018-02-08T04:29:48.147Z,98183.77
2018-02-08T04:30:51.106Z,98189.70
2018-02-08T04:31:54.024Z,98184.97
2018-02-08T04:32:57.287Z,98186.86
2018-02-08T04:34:00.257Z,98189.17
2018-02-08T04:35:03.209Z,98190.38
2018-02-08T04:36:06.150Z,98186.41
2018-02-08T04:37:09.352Z,98192.39
2018-02-08T04:38:12.304Z,98192.00
2018-02-08T04:39:15.618Z,98189.78
2018-02-08T04:40:18.570Z,98189.03
2018-02-08T04:41:21.488Z,98192.95
2018-02-08T04:42:24.439Z,98190.80
2018-02-08T04:43:27.404Z,98192.78
2018-02-08T04:44:30.426Z,98191.22
2018-02-08T04:45:33.807Z,98197.33
2018-02-08T04:46:36.763Z,98189.36
2018-02-08T04:47:39.783Z,98191.84
2018-02-08T04:48:42.788Z,98196.41
2018-02-08T04:49:45.731Z,98194.76
2018-02-08T04:50:48.738Z,98189.27
2018-02-08T04:51:52.134Z,98191.02
2018-02-08T04:52:55.059Z,98193.75
2018-02-08T04:53:58.015Z,98192.14
2018-02-08T04:55:00.982Z,98195.97
2018-02-08T04:56:03.938Z,98198.81
2018-02-08T04:57:06.855Z,98198.89
2018-02-08T04:58:10.161Z,98195.78
2018-02-08T04:59:13.092Z,98197.95
2018-02-08T05:00:16.057Z,98199.77
2018-02-08T05:01:19.020Z,98200.38
2018-02-08T05:02:22.122Z,98201.23
2018-02-08T05:03:25.079Z,98205.13
2018-02-08T05:04:28.526Z,98205.27
2018-02-08T05:05:31.571Z,98199.63
2018-02-08T05:06:34.515Z,98200.08
2018-02-08T05:07:37.496Z,98203.16
2018-02-08T05:08:40.433Z,98208.50
2018-02-08T05:09:43.441Z,98203.31
2018-02-08T05:10:46.908Z,98206.59
2018-02-08T05:11:49.900Z,98210.53
2018-02-08T05:12:52.866Z,98203.67
2018-02-08T05:13:55.901Z,98208.66
2018-02-08T05:14:58.835Z,98212.38
2018-02-08T05:16:01.808Z,98217.59
2018-02-08T05:17:06.511Z,98215.53
2018-02-08T05:18:09.479Z,98215.23
2018-02-08T05:19:12.708Z,98218.37
2018-02-08T05:20:15.651Z,98211.13
2018-02-08T05:21:18.613Z,98217.42
2018-02-08T05:22:21.537Z,98215.05
2018-02-08T05:23:24.843Z,98216.16
2018-02-08T05:24:27.830Z,98214.76
2018-02-08T05:25:30.798Z,98219.70
2018-02-08T05:26:33.776Z,98221.97
2018-02-08T05:27:36.776Z,98226.44
2018-02-08T05:28:39.799Z,98220.90
2018-02-08T05:29:43.241Z,98220.49
2018-02-08T05:30:46.175Z,98225.56
2018-02-08T05:31:49.121Z,98221.44
2018-02-08T05:32:52.060Z,98225.06
2018-02-08T05:33:55.081Z,98234.61
2018-02-08T05:34:58.034Z,98231.76
2018-02-08T05:36:01.340Z,98226.95
2018-02-08T05:37:04.271Z,98226.53
2018-02-08T05:38:07.296Z,98231.05
2018-02-08T05:39:10.240Z,98232.83
2018-02-08T05:40:13.252Z,98229.09
2018-02-08T05:41:16.198Z,98233.05
2018-02-08T05:42:19.567Z,98237.05
2018-02-08T05:43:22.442Z,98233.74
2018-02-08T05:44:25.313Z,98237.48
2018-02-08T05:45:28.171Z,98235.80
2018-02-08T05:46:31.037Z,98239.31
2018-02-08T05:47:33.892Z,98234.08
2018-02-08T05:48:37.191Z,98239.23
2018-02-08T05:49:40.119Z,98234.80
2018-02-08T05:50:43.101Z,98234.63
2018-02-08T05:51:46.022Z,98238.47
2018-02-08T05:52:48.960Z,98233.33
2018-02-08T05:53:51.908Z,98233.49
2018-02-08T05:54:55.259Z,98240.46
2018-02-08T05:55:58.213Z,98236.11
2018-02-08T05:57:01.129Z,98234.20
2018-02-08T05:58:03.999Z,98232.41
2018-02-08T05:59:06.874Z,98235.97
2018-02-08T06:00:09.784Z,98234.17
2018-02-08T06:01:13.077Z,98235.75
2018-02-08T06:02:15.973Z,98237.31
2018-02-08T06:03:18.889Z,98235.78
2018-02-08T06:04:21.749Z,98235.06
2018-02-08T06:05:24.636Z,98245.02
2018-02-08T06:06:27.560Z,98236.80
2018-02-08T06:07:30.945Z,98236.82
2018-02-08T06:08:33.927Z,98240.48
2018-02-08T06:09:36.863Z,98238.33
2018-02-08T06:10:39.804Z,98238.84
2018-02-08T06:11:42.746Z,98246.25
2018-02-08T06:12:45.821Z,98244.38
2018-02-08T06:13:49.230Z,98247.94
2018-02-08T06:14:52.179Z,98245.78
2018-02-08T06:15:55.153Z,98252.23
2018-02-08T06:16:58.161Z,98256.52
2018-02-08T06:18:02.080Z,98248.64
2018-02-08T06:19:05.007Z,98248.90
2018-02-08T06:20:08.286Z,98246.30
2018-02-08T06:21:11.226Z,98250.30
2018-02-08T06:22:14.144Z,98250.92
2018-02-08T06:23:17.018Z,98253.97
2018-02-08T06:24:20.067Z,98250.05
2018-02-08T06:25:23.031Z,98259.87
2018-02-08T06:26:26.537Z,98255.87
2018-02-08T06:27:29.494Z,98255.11
2018-02-08T06:28:32.476Z,98259.73
2018-02-08T06:29:35.464Z,98259.98
2018-02-08T06:30:38.530Z,98258.88
2018-02-08T06:31:41.522Z,98262.98
2018-02-08T06:32:44.924Z,98257.73
2018-02-08T06:33:47.840Z,98267.66
2018-02-08T06:34:50.815Z,98260.57
2018-02-08T06:35:53.751Z,98258.69
2018-02-08T06:36:56.705Z,98259.08
2018-02-08T06:37:59.710Z,98257.98
2018-02-08T06:39:02.994Z,98258.25
2018-02-08T06:40:05.996Z,98264.17
2018-02-08T06:41:08.934Z,98268.01
2018-02-08T06:42:11.864Z,98270.42
2018-02-08T06:43:14.892Z,98267.88
2018-02-08T06:44:17.857Z,98263.70
2018-02-08T06:45:21.236Z,98264.55
2018-02-08T06:46:24.198Z,98269.07
2018-02-08T06:47:27.199Z,98273.89
2018-02-08T06:48:30.122Z,98268.56
2018-02-08T06:49:33.051Z,98267.47
2018-02-08T06:50:36.005Z,98275.38
2018-02-08T06:51:39.208Z,98276.95
2018-02-08T06:52:42.190Z,98274.55
2018-02-08T06:53:45.160Z,98283.88
2018-02-08T06:54:48.090Z,98282.98
2018-02-08T06:55:51.037Z,98278.87
2018-02-08T06:56:53.976Z,98283.63
2018-02-08T06:57:57.356Z,98284.21
2018-02-08T06:59:00.303Z,98286.59
2018-02-08T07:00:03.355Z,98290.80
2018-02-08T07:01:06.400Z,98290.88
2018-02-08T07:02:09.367Z,98292.91
2018-02-08T07:03:12.357Z,98291.78
2018-02-08T07:04:15.854Z,98303.85
2018-02-08T07:05:18.844Z,98294.79
2018-02-08T07:06:21.853Z,98298.58
2018-02-08T07:07:24.813Z,98297.32
2018-02-08T07:08:27.917Z,98301.61
2018-02-08T07:09:30.865Z,98300.59
2018-02-08T07:10:34.316Z,98302.20
2018-02-08T07:11:37.276Z,98303.31
2018-02-08T07:12:40.279Z,98301.93
2018-02-08T07:13:43.203Z,98300.78
2018-02-08T07:14:46.177Z,98303.85
2018-02-08T07:15:49.204Z,98310.91
2018-02-08T07:16:52.573Z,98306.37
2018-02-08T07:17:55.548Z,98308.64
2018-02-08T07:18:58.541Z,98310.91
2018-02-08T07:20:01.478Z,98315.44
2018-02-08T07:21:04.473Z,98316.16
2018-02-08T07:22:07.389Z,98316.41
2018-02-08T07:23:10.824Z,98317.03
2018-02-08T07:24:13.795Z,98318.67
2018-02-08T07:25:17.137Z,98319.97
2018-02-08T07:26:20.143Z,98319.30
2018-02-08T07:27:23.318Z,98322.75
2018-02-08T07:28:26.303Z,98321.66
2018-02-08T07:29:29.685Z,98321.45
2018-02-08T07:30:32.621Z,98322.28
2018-02-08T07:31:35.580Z,98321.67
2018-02-08T07:32:38.578Z,98331.01
2018-02-08T07:33:41.595Z,98327.48
2018-02-08T07:34:44.583Z,98328.08
2018-02-08T07:35:47.886Z,98332.02
2018-02-08T07:36:50.832Z,98328.98
2018-02-08T07:37:53.795Z,98332.84
2018-02-08T07:38:56.737Z,98333.12
2018-02-08T07:40:00.043Z,98337.00
2018-02-08T07:41:03.033Z,98336.17
2018-02-08T07:42:06.414Z,98329.61
2018-02-08T07:43:09.385Z,98338.41
2018-02-08T07:44:12.335Z,98333.77
2018-02-08T07:45:15.340Z,98336.91
2018-02-08T07:46:18.357Z,98330.84
2018-02-08T07:47:21.336Z,98333.34
2018-02-08T07:48:25.302Z,98331.95
2018-02-08T07:49:28.287Z,98338.64
2018-02-08T07:50:31.362Z,98336.05
2018-02-08T07:51:34.285Z,98333.37
2018-02-08T07:52:37.281Z,98340.42
2018-02-08T07:53:40.223Z,98337.66
2018-02-08T07:54:43.574Z,98340.69
2018-02-08T07:55:46.522Z,98341.16
2018-02-08T07:56:49.646Z,98343.54
2018-02-08T07:57:52.604Z,98344.75
2018-02-08T07:58:55.598Z,98349.23
2018-02-08T07:59:58.571Z,98346.14
2018-02-08T08:01:01.961Z,98344.02
2018-02-08T08:02:04.885Z,98342.18
2018-02-08T08:03:07.771Z,98345.47
2018-02-08T08:04:11.089Z,98342.95
2018-02-08T08:05:14.088Z,98347.70
2018-02-08T08:06:17.136Z,98352.02
2018-02-08T08:07:20.653Z,98341.31
2018-02-08T08:08:23.643Z,98341.95
2018-02-08T08:09:28.044Z,98343.31
2018-02-08T08:10:32.205Z,98342.87
2018-02-08T08:11:35.171Z,98345.23
2018-02-08T08:12:38.163Z,98338.25
2018-02-08T08:13:41.595Z,98338.73
2018-02-08T08:14:44.576Z,98344.30
2018-02-08T08:15:47.540Z,98337.19
2018-02-08T08:16:50.533Z,98338.92
2018-02-08T08:17:54.048Z,98339.39
2018-02-08T08:18:57.067Z,98344.13
2018-02-08T08:20:00.477Z,98341.91
2018-02-08T08:21:03.381Z,98340.64
2018-02-08T08:22:06.230Z,98341.33
2018-02-08T08:23:09.225Z,98344.86
2018-02-08T08:24:12.165Z,98341.94
2018-02-08T08:25:15.087Z,98340.77
2018-02-08T08:26:18.431Z,98335.91
2018-02-08T08:27:21.431Z,98337.16
2018-02-08T08:28:24.374Z,98335.87
2018-02-08T08:29:27.320Z,98340.08
2018-02-08T08:30:30.334Z,98340.86
2018-02-08T08:31:33.541Z,98336.94
2018-02-08T08:32:36.950Z,98336.62
2018-02-08T08:33:39.907Z,98339.92
2018-02-08T08:34:42.886Z,98342.50
2018-02-08T08:35:46.011Z,98340.79
2018-02-08T08:36:48.983Z,98341.34
2018-02-08T08:37:52.004Z,98340.52
2018-02-08T08:38:55.395Z,98340.63
2018-02-08T08:39:58.434Z,98347.91
2018-02-08T08:41:01.454Z,98346.27
2018-02-08T08:42:04.437Z,98350.66
2018-02-08T08:43:07.412Z,98350.27
2018-02-08T08:44:10.369Z,98350.22
2018-02-08T08:45:13.627Z,98346.91
2018-02-08T08:46:16.749Z,98347.05
2018-02-08T08:47:19.732Z,98350.53
2018-02-08T08:48:22.753Z,98349.83
2018-02-08T08:49:25.705Z,98356.99
2018-02-08T08:50:28.656Z,98347.00
2018-02-08T08:51:31.615Z,98351.31
2018-02-08T08:52:34.618Z,98347.59
2018-02-08T08:53:37.604Z,98350.50
2018-02-08T08:54:40.734Z,98357.20
2018-02-08T08:55:43.721Z,98354.75
2018-02-08T08:56:47.144Z,98355.35
2018-02-08T08:57:50.126Z,98350.08
2018-02-08T08:58:53.120Z,98354.36
2018-02-08T08:59:56.112Z,98354.69
2018-02-08T09:00:59.122Z,98352.82
2018-02-08T09:02:02.098Z,98351.77
2018-02-08T09:03:05.597Z,98348.86
2018-02-08T09:04:08.622Z,98351.62
2018-02-08T09:05:11.622Z,98353.09
2018-02-08T09:06:14.612Z,98348.96
2018-02-08T09:07:17.700Z,98348.94
2018-02-08T09:08:20.652Z,98349.63
2018-02-08T09:09:24.157Z,98359.06
2018-02-08T09:10:27.158Z,98349.96
2018-02-08T09:11:31.212Z,98353.23
2018-02-08T09:12:34.234Z,98358.16
2018-02-08T09:13:37.197Z,98360.80
2018-02-08T09:14:40.180Z,98359.06
2018-02-08T09:15:43.507Z,98359.16
2018-02-08T09:16:46.490Z,98362.05
2018-02-08T09:17:49.499Z,98360.95
2018-02-08T09:18:52.447Z,98362.44
2018-02-08T09:19:55.442Z,98358.36
2018-02-08T09:20:58.412Z,98353.95
2018-02-08T09:22:01.804Z,98353.52
2018-02-08T09:23:05.069Z,98360.44
2018-02-08T09:24:08.290Z,98357.61
2018-02-08T09:25:11.523Z,98357.86
2018-02-08T09:26:14.484Z,98359.85
2018-02-08T09:27:17.538Z,98355.88
2018-02-08T09:28:20.492Z,98357.66
2018-02-08T09:29:23.451Z,98352.14
2018-02-08T09:30:26.473Z,98352.36
2018-02-08T09:31:29.481Z,98364.07
2018-02-08T09:32:32.493Z,98363.87
2018-02-08T09:33:35.766Z,98365.00
2018-02-08T09:34:39.147Z,98366.79
2018-02-08T09:35:42.235Z,98364.73
2018-02-08T09:36:45.197Z,98362.36
2018-02-08T09:37:48.121Z,98365.89
2018-02-08T09:38:51.012Z,98369.06
2018-02-08T09:39:54.179Z,98365.59
2018-02-08T09:40:57.115Z,98370.51
2018-02-08T09:42:00.031Z,98374.37
2018-02-08T09:43:02.955Z,98369.26
2018-02-08T09:44:05.876Z,98375.48
2018-02-08T09:45:08.852Z,98376.45
2018-02-08T09:46:12.157Z,98382.03
2018-02-08T09:47:15.057Z,98375.98
2018-02-08T09:48:17.958Z,98379.50
2018-02-08T09:49:20.876Z,98379.03
2018-02-08T09:50:23.842Z,98378.42
2018-02-08T09:51:26.742Z,98379.05
2018-02-08T09:52:29.958Z,98378.01
2018-02-08T09:53:32.925Z,98382.71
2018-02-08T09:54:35.809Z,98378.98
2018-02-08T09:55:38.759Z,98371.11
2018-02-08T09:56:41.760Z,98377.36
2018-02-08T09:57:44.704Z,98377.33
2018-02-08T09:58:47.807Z,98377.20
2018-02-08T09:59:50.767Z,98379.27
2018-02-08T10:00:53.804Z,98377.30
2018-02-08T10:01:56.746Z,98373.41
2018-02-08T10:02:59.745Z,98382.78
2018-02-08T10:04:02.724Z,98378.59
2018-02-08T10:05:06.117Z,98376.25
2018-02-08T10:06:09.050Z,98379.83
2018-02-08T10:07:12.043Z,98384.81
2018-02-08T10:08:14.937Z,98377.90
2018-02-08T10:09:17.903Z,98383.73
2018-02-08T10:10:21.574Z,98384.94
2018-02-08T10:11:24.988Z,98382.59
2018-02-08T10:12:28.516Z,98387.58
2018-02-08T10:13:31.515Z,98389.85
2018-02-08T10:14:36.469Z,98386.89
2018-02-08T10:15:39.557Z,98383.20
2018-02-08T10:16:42.497Z,98379.90
2018-02-08T10:17:45.974Z,98385.80
2018-02-08T10:18:49.531Z,98382.41
2018-02-08T10:19:52.523Z,98385.23
2018-02-08T10:20:55.503Z,98382.07
2018-02-08T10:21:58.521Z,98380.41
2018-02-08T10:23:01.572Z,98380.14
2018-02-08T10:24:05.043Z,98377.91
2018-02-08T10:25:08.067Z,98381.80
2018-02-08T10:26:11.022Z,98387.50
2018-02-08T10:27:14.024Z,98386.63
2018-02-08T10:28:16.982Z,98388.33
2018-02-08T10:29:19.945Z,98389.36
2018-02-08T10:30:23.399Z,98386.23
2018-02-08T10:31:26.460Z,98390.44
2018-02-08T10:32:29.422Z,98387.44
2018-02-08T10:33:32.379Z,98388.84
2018-02-08T10:34:35.327Z,98382.23
2018-02-08T10:35:38.284Z,98383.94
2018-02-08T10:36:41.732Z,98378.16
2018-02-08T10:37:44.731Z,98383.76
2018-02-08T10:38:47.717Z,98377.22
2018-02-08T10:39:51.182Z,98370.53
2018-02-08T10:40:54.194Z,98367.97
2018-02-08T10:41:57.181Z,98367.31
2018-02-08T10:43:00.201Z,98360.38
2018-02-08T10:44:03.220Z,98361.02
2018-02-08T10:45:06.160Z,98364.73
2018-02-08T10:46:09.118Z,98359.67
2018-02-08T10:47:12.478Z,98364.80
2018-02-08T10:48:15.765Z,98362.14
2018-02-08T10:49:18.745Z,98357.03
2018-02-08T10:50:21.981Z,98358.17
2018-02-08T10:51:25.015Z,98357.56
2018-02-08T10:52:28.029Z,98356.98
2018-02-08T10:53:31.560Z,98362.94
2018-02-08T10:54:35.155Z,98359.86
2018-02-08T10:55:38.221Z,98360.82
2018-02-08T10:56:41.189Z,98362.80
2018-02-08T10:57:44.211Z,98365.26
2018-02-08T10:58:47.268Z,98367.63
2018-02-08T10:59:50.747Z,98366.11
2018-02-08T11:00:53.748Z,98359.70
2018-02-08T11:01:56.751Z,98357.13
2018-02-08T11:02:59.690Z,98363.16
2018-02-08T11:04:02.738Z,98356.28
2018-02-08T11:05:05.757Z,98368.57
2018-02-08T11:06:09.059Z,98356.86
2018-02-08T11:07:12.081Z,98366.44
2018-02-08T11:08:15.122Z,98359.19
2018-02-08T11:09:18.119Z,98362.30
2018-02-08T11:10:21.071Z,98355.42
2018-02-08T11:11:24.079Z,98360.06
2018-02-08T11:12:27.598Z,98354.84
2018-02-08T11:13:30.570Z,98352.76
2018-02-08T11:14:34.511Z,98355.02
2018-02-08T11:15:37.511Z,98354.89
2018-02-08T11:16:40.473Z,98359.56
2018-02-08T11:17:43.567Z,98356.34
2018-02-08T11:18:47.043Z,98354.68
2018-02-08T11:19:50.004Z,98348.05
2018-02-08T11:20:53.001Z,98347.83
2018-02-08T11:21:55.960Z,98350.55
2018-02-08T11:22:59.047Z,98344.34
2018-02-08T11:24:02.028Z,98352.00
2018-02-08T11:25:05.545Z,98347.92
2018-02-08T11:26:08.498Z,98348.63
2018-02-08T11:27:12.102Z,98347.22
2018-02-08T11:28:15.051Z,98349.73
2018-02-08T11:29:18.012Z,98347.44
2018-02-08T11:30:21.029Z,98349.66
2018-02-08T11:31:25.337Z,98349.95
2018-02-08T11:32:28.196Z,98343.60
2018-02-08T11:33:31.233Z,98347.35
2018-02-08T11:34:34.207Z,98355.52
2018-02-08T11:35:37.096Z,98354.34
2018-02-08T11:36:40.011Z,98355.02
2018-02-08T11:37:43.994Z,98349.78
2018-02-08T11:38:46.908Z,98352.72
2018-02-08T11:39:49.813Z,98347.13
2018-02-08T11:40:52.759Z,98348.59
2018-02-08T11:41:55.657Z,98349.24
2018-02-08T11:42:58.768Z,98353.06
2018-02-08T11:44:02.198Z,98350.48
2018-02-08T11:45:05.199Z,98348.20
2018-02-08T11:46:08.109Z,98343.30
2018-02-08T11:47:11.014Z,98348.20
2018-02-08T11:48:13.972Z,98343.67
2018-02-08T11:49:16.956Z,98345.26
2018-02-08T11:50:20.470Z,98353.41
2018-02-08T11:51:23.618Z,98351.53
2018-02-08T11:52:26.682Z,98350.72
2018-02-08T11:53:29.610Z,98355.06
2018-02-08T11:54:32.534Z,98352.45
2018-02-08T11:55:35.502Z,98349.41
2018-02-08T11:56:38.901Z,98350.69
2018-02-08T11:57:41.812Z,98350.86
2018-02-08T11:58:44.745Z,98342.34
2018-02-08T11:59:48.166Z,98340.21
2018-02-08T12:00:51.180Z,98343.55
2018-02-08T12:01:54.381Z,98349.06
2018-02-08T12:02:57.826Z,98337.53
2018-02-08T12:04:00.789Z,98332.89
2018-02-08T12:05:03.805Z,98335.80
2018-02-08T12:06:06.813Z,98339.22
2018-02-08T12:07:09.907Z,98333.14
2018-02-08T12:08:12.884Z,98335.32
2018-02-08T12:09:16.417Z,98330.38
2018-02-08T12:10:19.327Z,98338.58
2018-02-08T12:11:22.291Z,98335.72
2018-02-08T12:12:25.885Z,98340.48
2018-02-08T12:13:28.827Z,98337.78
2018-02-08T12:14:31.737Z,98344.75
2018-02-08T12:15:35.105Z,98336.66
2018-02-08T12:16:38.049Z,98333.88
2018-02-08T12:17:41.080Z,98332.08
2018-02-08T12:18:44.080Z,98333.81
2018-02-08T12:19:47.066Z,98332.80
2018-02-08T12:20:50.320Z,98325.30